Detall de PIREP

Printer-friendly versionPDF version

[2013/02/05 10:32:00]
Flight IATA:CT1005
Pilot Number:042
Company ICAO:CAT
Aircraft Type:C750/F
PAX:2
Departing Airport: EYVI
Destination Airport: EETN
Alternate Airport:EFHK
Online: VATSIM
Route:VNO M983 DOLAT Q77 KEME
Flight Level:F190
No Slew and time accel
No pause
Crash detect
Detect pilot in Cockpit between each 30 and 45 minutes
10:32 Zero fuel Weight: 22921 Lbs, Fuel Weight: 12980 Lbs
10:32 VATSIM:EYVI 051020Z 21010KT 9999 VCSH SCT010CB BKN015 01/01 Q0996 R20/5/0249 NOSIG
10:32 VATSIM:EETN 051020Z 13010KT 9000 OVC006 M01/M02 Q0987 R08/920242 TEMPO OVC004
10:33 VOICE CATALONIAN/EU TOUR
10:40 Parking Brakes off
10:50 Take-off
10:50 Take off Weight: 35762 Lbs
10:50 Wind: 205º @ 010 Knots Heading: 202º
10:50 POS N54º 37´ 42´´ E025º 16´ 54´´
10:50 Gear Up: 170 Knots
10:50 Flaps:3 at 170 Knots
10:50 Flaps:2 at 185 Knots
10:50 Flaps:0 at 199 Knots
10:55 TOC
10:55 Fuel Weight: 12532 Lb
11:05 Wind:213º@036 Knots Heading: 354º Ground Speed: 428 Knots Altitude 18412 ft
11:20 Wind:187º@031 Knots Heading: 356º Ground Speed: 446 Knots Altitude 18303 ft
11:28 TOD
11:28 Fuel Weight: 11653 Lb
11:35 Wind:145º@019 Knots Heading: 015º Ground Speed: 189 Knots Altitude 9940 ft
11:40 Flaps:2 at 216 Knots
11:40 Flaps:3 at 200 Knots
11:41 Flaps:4 at 154 Knots
11:44 Gear Down: 149 Knots
11:44 Flaps:5 at 149 Knots
11:47 TouchDown:Rate -177 ft/min Speed: 111 Knots
11:47 VATSIM:EETN 051120Z 13008KT 100V170 9999 OVC008 M01/M02 Q0987 R08/420295 TEMPO OVC004
11:47 Land
11:47 Wind:118º@008 Knots
11:47 Heading: 093º
11:47 Flight Duration: 00:57
11:47 Landing Weight: 34332 Lbs
11:47 POS N59º 24´ 48´´ E024º 50´ 06´´
11:57 Parking brakes on
11:57 Block to Block Duration: 01:17
11:57 Final Fuel: 11291 Lbls
11:57 Spent Fuel: 1688 Lbls
11:57 Flight Length: 256 NM
11:57 TOD Land Length: 21 NM

Exportar CSV

Powered by Drupal - Modified by Danger4k